sensor_id;sensor_type;location;lat;lon;timestamp;temperature;humidity
59282;DHT22;45054;52.062;10.010;2023-03-01T00:02:16;-2.20;99.90
59282;DHT22;45054;52.062;10.010;2023-03-01T00:04:42;-2.30;99.90
59282;DHT22;45054;52.062;10.010;2023-03-01T00:07:07;-2.40;99.90
59282;DHT22;45054;52.062;10.010;2023-03-01T00:09:35;-2.30;99.90
59282;DHT22;45054;52.062;10.010;2023-03-01T00:12:00;-2.30;99.90
59282;DHT22;45054;52.062;10.010;2023-03-01T00:14:26;-2.30;99.90
59282;DHT22;45054;52.062;10.010;2023-03-01T00:16:54;-2.40;99.90
59282;DHT22;45054;52.062;10.010;2023-03-01T00:19:20;-2.30;99.90
59282;DHT22;45054;52.062;10.010;2023-03-01T00:21:45;-2.40;99.90
59282;DHT22;45054;52.062;10.010;2023-03-01T00:24:11;-2.40;99.90
59282;DHT22;45054;52.062;10.010;2023-03-01T00:26:38;-2.50;99.90
59282;DHT22;45054;52.062;10.010;2023-03-01T00:29:03;-2.50;99.90
59282;DHT22;45054;52.062;10.010;2023-03-01T00:31:30;-2.50;99.90
59282;DHT22;45054;52.062;10.010;2023-03-01T00:33:56;-2.50;99.90
59282;DHT22;45054;52.062;10.010;2023-03-01T00:36:23;-2.60;99.90
59282;DHT22;45054;52.062;10.010;2023-03-01T00:38:49;-2.70;99.90
59282;DHT22;45054;52.062;10.010;2023-03-01T00:41:15;-2.70;99.90
59282;DHT22;45054;52.062;10.010;2023-03-01T00:43:42;-2.70;99.90
59282;DHT22;45054;52.062;10.010;2023-03-01T00:46:08;-2.70;99.90
59282;DHT22;45054;52.062;10.010;2023-03-01T00:48:34;-2.70;99.90
59282;DHT22;45054;52.062;10.010;2023-03-01T00:51:04;-2.70;99.90
59282;DHT22;45054;52.062;10.010;2023-03-01T00:53:29;-2.90;99.90
59282;DHT22;45054;52.062;10.010;2023-03-01T00:55:56;-2.90;99.90
59282;DHT22;45054;52.062;10.010;2023-03-01T00:58:21;-2.90;99.90
59282;DHT22;45054;52.062;10.010;2023-03-01T01:00:48;-3.00;99.90
59282;DHT22;45054;52.062;10.010;2023-03-01T01:03:14;-2.90;99.90
59282;DHT22;45054;52.062;10.010;2023-03-01T01:05:39;-2.90;99.90
59282;DHT22;45054;52.062;10.010;2023-03-01T01:08:05;-2.90;99.90
59282;DHT22;45054;52.062;10.010;2023-03-01T01:10:30;-2.90;99.90
59282;DHT22;45054;52.062;10.010;2023-03-01T01:12:55;-3.00;99.90
59282;DHT22;45054;52.062;10.010;2023-03-01T01:15:21;-3.00;99.90
59282;DHT22;45054;52.062;10.010;2023-03-01T01:17:48;-3.00;99.90
59282;DHT22;45054;52.062;10.010;2023-03-01T01:20:13;-3.00;99.90
59282;DHT22;45054;52.062;10.010;2023-03-01T01:22:38;-2.90;99.90
59282;DHT22;45054;52.062;10.010;2023-03-01T01:25:04;-3.00;99.90
59282;DHT22;45054;52.062;10.010;2023-03-01T01:27:30;-3.00;99.90
59282;DHT22;45054;52.062;10.010;2023-03-01T01:29:55;-3.10;99.90
59282;DHT22;45054;52.062;10.010;2023-03-01T01:32:20;-3.20;99.90
59282;DHT22;45054;52.062;10.010;2023-03-01T01:34:47;-3.30;99.90
59282;DHT22;45054;52.062;10.010;2023-03-01T01:37:13;-3.30;99.90
59282;DHT22;45054;52.062;10.010;2023-03-01T01:39:38;-3.30;99.90
59282;DHT22;45054;52.062;10.010;2023-03-01T01:42:04;-3.40;99.90
59282;DHT22;45054;52.062;10.010;2023-03-01T01:44:29;-3.40;99.90
59282;DHT22;45054;52.062;10.010;2023-03-01T01:46:55;-3.40;99.90
59282;DHT22;45054;52.062;10.010;2023-03-01T01:49:23;-3.40;99.90
59282;DHT22;45054;52.062;10.010;2023-03-01T01:51:51;-3.40;99.90
59282;DHT22;45054;52.062;10.010;2023-03-01T01:54:19;-3.30;99.90
59282;DHT22;45054;52.062;10.010;2023-03-01T01:56:48;-3.40;99.90
59282;DHT22;45054;52.062;10.010;2023-03-01T01:59:15;-3.40;99.90
59282;DHT22;45054;52.062;10.010;2023-03-01T02:01:41;-3.40;99.90
59282;DHT22;45054;52.062;10.010;2023-03-01T02:04:06;-3.40;99.90
59282;DHT22;45054;52.062;10.010;2023-03-01T02:06:32;-3.50;99.90
59282;DHT22;45054;52.062;10.010;2023-03-01T02:09:03;-3.50;99.90
59282;DHT22;45054;52.062;10.010;2023-03-01T02:11:30;-3.50;99.90
59282;DHT22;45054;52.062;10.010;2023-03-01T02:13:56;-3.40;99.90
59282;DHT22;45054;52.062;10.010;2023-03-01T02:16:21;-3.40;99.90
59282;DHT22;45054;52.062;10.010;2023-03-01T02:18:47;-3.50;99.90
59282;DHT22;45054;52.062;10.010;2023-03-01T02:21:16;-3.50;99.90
59282;DHT22;45054;52.062;10.010;2023-03-01T02:23:42;-3.50;99.90
59282;DHT22;45054;52.062;10.010;2023-03-01T02:26:10;-3.50;99.90
59282;DHT22;45054;52.062;10.010;2023-03-01T02:28:39;-3.50;99.90
59282;DHT22;45054;52.062;10.010;2023-03-01T02:31:06;-3.50;99.90
59282;DHT22;45054;52.062;10.010;2023-03-01T02:33:33;-3.50;99.90
59282;DHT22;45054;52.062;10.010;2023-03-01T02:35:59;-3.50;99.90
59282;DHT22;45054;52.062;10.010;2023-03-01T02:38:25;-3.60;99.90
59282;DHT22;45054;52.062;10.010;2023-03-01T02:40:51;-3.60;99.90
59282;DHT22;45054;52.062;10.010;2023-03-01T02:43:16;-3.70;99.90
59282;DHT22;45054;52.062;10.010;2023-03-01T02:45:49;-3.50;99.90
59282;DHT22;45054;52.062;10.010;2023-03-01T02:48:14;-3.60;99.90
59282;DHT22;45054;52.062;10.010;2023-03-01T02:50:44;-3.60;99.90
59282;DHT22;45054;52.062;10.010;2023-03-01T02:53:12;-3.60;99.90
59282;DHT22;45054;52.062;10.010;2023-03-01T02:55:41;-3.60;99.90
59282;DHT22;45054;52.062;10.010;2023-03-01T02:58:06;-3.60;99.90
59282;DHT22;45054;52.062;10.010;2023-03-01T03:00:34;-3.70;99.90
59282;DHT22;45054;52.062;10.010;2023-03-01T03:03:02;-3.70;99.90
59282;DHT22;45054;52.062;10.010;2023-03-01T03:05:30;-3.70;99.90
59282;DHT22;45054;52.062;10.010;2023-03-01T03:07:56;-3.70;99.90
59282;DHT22;45054;52.062;10.010;2023-03-01T03:10:23;-3.70;99.90
59282;DHT22;45054;52.062;10.010;2023-03-01T03:12:49;-3.80;99.90
59282;DHT22;45054;52.062;10.010;2023-03-01T03:15:14;-3.80;99.90
59282;DHT22;45054;52.062;10.010;2023-03-01T03:17:41;-3.90;99.90
59282;DHT22;45054;52.062;10.010;2023-03-01T03:20:09;-3.90;99.90
59282;DHT22;45054;52.062;10.010;2023-03-01T03:22:36;-3.90;99.90
59282;DHT22;45054;52.062;10.010;2023-03-01T03:25:02;-3.90;99.90
59282;DHT22;45054;52.062;10.010;2023-03-01T03:27:27;-3.90;99.90
59282;DHT22;45054;52.062;10.010;2023-03-01T03:29:52;-3.80;99.90
59282;DHT22;45054;52.062;10.010;2023-03-01T03:32:18;-3.80;99.90
59282;DHT22;45054;52.062;10.010;2023-03-01T03:34:43;-3.80;99.90
59282;DHT22;45054;52.062;10.010;2023-03-01T03:37:10;-3.80;99.90
59282;DHT22;45054;52.062;10.010;2023-03-01T03:39:36;-3.90;99.90
59282;DHT22;45054;52.062;10.010;2023-03-01T03:42:01;-3.90;99.90
59282;DHT22;45054;52.062;10.010;2023-03-01T03:44:26;-3.90;99.90
59282;DHT22;45054;52.062;10.010;2023-03-01T03:46:52;-3.90;99.90
59282;DHT22;45054;52.062;10.010;2023-03-01T03:49:17;-4.00;99.90
59282;DHT22;45054;52.062;10.010;2023-03-01T03:51:44;-4.00;99.90
59282;DHT22;45054;52.062;10.010;2023-03-01T03:54:11;-4.00;99.90
59282;DHT22;45054;52.062;10.010;2023-03-01T03:56:37;-4.00;99.90
59282;DHT22;45054;52.062;10.010;2023-03-01T03:59:02;-4.00;99.90
59282;DHT22;45054;52.062;10.010;2023-03-01T04:01:27;-4.00;99.90
59282;DHT22;45054;52.062;10.010;2023-03-01T04:03:53;-3.90;99.90
59282;DHT22;45054;52.062;10.010;2023-03-01T04:06:18;-3.80;99.90
59282;DHT22;45054;52.062;10.010;2023-03-01T04:08:44;-3.90;99.90
59282;DHT22;45054;52.062;10.010;2023-03-01T04:11:10;-3.90;99.90
59282;DHT22;45054;52.062;10.010;2023-03-01T04:13:36;-3.90;99.90
59282;DHT22;45054;52.062;10.010;2023-03-01T04:16:02;-3.90;99.90
59282;DHT22;45054;52.062;10.010;2023-03-01T04:18:27;-3.90;99.90
59282;DHT22;45054;52.062;10.010;2023-03-01T04:20:53;-3.90;99.90
59282;DHT22;45054;52.062;10.010;2023-03-01T04:23:19;-4.00;99.90
59282;DHT22;45054;52.062;10.010;2023-03-01T04:25:45;-4.00;99.90
59282;DHT22;45054;52.062;10.010;2023-03-01T04:28:12;-4.10;99.90
59282;DHT22;45054;52.062;10.010;2023-03-01T04:30:38;-4.10;99.90
59282;DHT22;45054;52.062;10.010;2023-03-01T04:33:04;-4.10;99.90
59282;DHT22;45054;52.062;10.010;2023-03-01T04:35:30;-4.10;99.90
59282;DHT22;45054;52.062;10.010;2023-03-01T04:37:55;-4.10;99.90
59282;DHT22;45054;52.062;10.010;2023-03-01T04:40:20;-4.10;99.90
59282;DHT22;45054;52.062;10.010;2023-03-01T04:42:46;-4.20;99.90
59282;DHT22;45054;52.062;10.010;2023-03-01T04:45:13;-4.20;99.90
59282;DHT22;45054;52.062;10.010;2023-03-01T04:47:38;-4.20;99.90
59282;DHT22;45054;52.062;10.010;2023-03-01T04:50:04;-4.20;99.90
59282;DHT22;45054;52.062;10.010;2023-03-01T04:52:30;-4.30;99.90
59282;DHT22;45054;52.062;10.010;2023-03-01T04:54:55;-4.40;99.90
59282;DHT22;45054;52.062;10.010;2023-03-01T04:57:21;-4.40;99.90
59282;DHT22;45054;52.062;10.010;2023-03-01T04:59:46;-4.50;99.90
59282;DHT22;45054;52.062;10.010;2023-03-01T05:02:13;-4.40;99.90
59282;DHT22;45054;52.062;10.010;2023-03-01T05:04:38;-4.40;99.90
59282;DHT22;45054;52.062;10.010;2023-03-01T05:07:04;-4.30;99.90
59282;DHT22;45054;52.062;10.010;2023-03-01T05:09:29;-4.30;99.90
59282;DHT22;45054;52.062;10.010;2023-03-01T05:11:55;-4.30;99.90
59282;DHT22;45054;52.062;10.010;2023-03-01T05:14:20;-4.40;99.90
59282;DHT22;45054;52.062;10.010;2023-03-01T05:16:45;-4.40;99.90
59282;DHT22;45054;52.062;10.010;2023-03-01T05:19:12;-4.30;99.90
59282;DHT22;45054;52.062;10.010;2023-03-01T05:21:38;-4.40;99.90
59282;DHT22;45054;52.062;10.010;2023-03-01T05:24:04;-4.40;99.90
59282;DHT22;45054;52.062;10.010;2023-03-01T05:26:29;-4.30;99.90
59282;DHT22;45054;52.062;10.010;2023-03-01T05:28:55;-4.30;99.90
59282;DHT22;45054;52.062;10.010;2023-03-01T05:31:20;-4.30;99.90
59282;DHT22;45054;52.062;10.010;2023-03-01T05:33:46;-4.30;99.90
59282;DHT22;45054;52.062;10.010;2023-03-01T05:36:12;-4.30;99.90
59282;DHT22;45054;52.062;10.010;2023-03-01T05:38:38;-4.40;99.90
59282;DHT22;45054;52.062;10.010;2023-03-01T05:41:03;-4.40;99.90
59282;DHT22;45054;52.062;10.010;2023-03-01T05:43:29;-4.40;99.90
59282;DHT22;45054;52.062;10.010;2023-03-01T05:45:55;-4.40;99.90
59282;DHT22;45054;52.062;10.010;2023-03-01T05:48:22;-4.40;99.90
59282;DHT22;45054;52.062;10.010;2023-03-01T05:50:47;-4.40;99.90
59282;DHT22;45054;52.062;10.010;2023-03-01T05:53:15;-4.30;99.90
59282;DHT22;45054;52.062;10.010;2023-03-01T05:55:41;-4.30;99.90
59282;DHT22;45054;52.062;10.010;2023-03-01T05:58:07;-4.40;99.90
59282;DHT22;45054;52.062;10.010;2023-03-01T06:00:34;-4.40;99.90
59282;DHT22;45054;52.062;10.010;2023-03-01T06:02:59;-4.30;99.90
59282;DHT22;45054;52.062;10.010;2023-03-01T06:05:25;-4.40;99.90
59282;DHT22;45054;52.062;10.010;2023-03-01T06:07:51;-4.40;99.90
59282;DHT22;45054;52.062;10.010;2023-03-01T06:10:18;-4.50;99.90
59282;DHT22;45054;52.062;10.010;2023-03-01T06:12:44;-4.50;99.90
59282;DHT22;45054;52.062;10.010;2023-03-01T06:15:11;-4.50;99.90
59282;DHT22;45054;52.062;10.010;2023-03-01T06:17:37;-4.60;99.90
59282;DHT22;45054;52.062;10.010;2023-03-01T06:20:03;-4.50;99.90
59282;DHT22;45054;52.062;10.010;2023-03-01T06:22:29;-4.50;99.90
59282;DHT22;45054;52.062;10.010;2023-03-01T06:24:54;-4.60;99.90
59282;DHT22;45054;52.062;10.010;2023-03-01T06:27:21;-4.50;99.90
59282;DHT22;45054;52.062;10.010;2023-03-01T06:29:46;-4.50;99.90
59282;DHT22;45054;52.062;10.010;2023-03-01T06:32:12;-4.40;99.90
59282;DHT22;45054;52.062;10.010;2023-03-01T06:34:37;-4.40;99.90
59282;DHT22;45054;52.062;10.010;2023-03-01T06:37:03;-4.30;99.90
59282;DHT22;45054;52.062;10.010;2023-03-01T06:39:28;-4.40;99.90
59282;DHT22;45054;52.062;10.010;2023-03-01T06:41:53;-4.40;99.90
59282;DHT22;45054;52.062;10.010;2023-03-01T06:44:20;-4.30;99.90
59282;DHT22;45054;52.062;10.010;2023-03-01T06:46:46;-4.30;99.90
59282;DHT22;45054;52.062;10.010;2023-03-01T06:49:11;-4.40;99.90
59282;DHT22;45054;52.062;10.010;2023-03-01T06:51:36;-4.40;99.90
59282;DHT22;45054;52.062;10.010;2023-03-01T06:54:02;-4.40;99.90
59282;DHT22;45054;52.062;10.010;2023-03-01T06:56:27;-4.30;99.90
59282;DHT22;45054;52.062;10.010;2023-03-01T06:58:53;-4.30;99.90
59282;DHT22;45054;52.062;10.010;2023-03-01T07:01:20;-4.20;99.90
59282;DHT22;45054;52.062;10.010;2023-03-01T07:03:45;-4.20;99.90
59282;DHT22;45054;52.062;10.010;2023-03-01T07:06:10;-4.30;99.90
59282;DHT22;45054;52.062;10.010;2023-03-01T07:08:36;-4.30;99.90
59282;DHT22;45054;52.062;10.010;2023-03-01T07:11:01;-4.20;99.90
59282;DHT22;45054;52.062;10.010;2023-03-01T07:13:27;-4.10;99.90
59282;DHT22;45054;52.062;10.010;2023-03-01T07:15:52;-4.00;99.90
59282;DHT22;45054;52.062;10.010;2023-03-01T07:18:19;-3.90;99.90
59282;DHT22;45054;52.062;10.010;2023-03-01T07:20:45;-3.80;99.90
59282;DHT22;45054;52.062;10.010;2023-03-01T07:23:10;-3.80;99.90
59282;DHT22;45054;52.062;10.010;2023-03-01T07:25:35;-3.70;99.90
59282;DHT22;45054;52.062;10.010;2023-03-01T07:28:01;-3.60;99.90
59282;DHT22;45054;52.062;10.010;2023-03-01T07:30:26;-3.50;99.90
59282;DHT22;45054;52.062;10.010;2023-03-01T07:32:52;-3.30;99.90
59282;DHT22;45054;52.062;10.010;2023-03-01T07:35:19;-3.30;99.90
59282;DHT22;45054;52.062;10.010;2023-03-01T07:37:44;-3.20;99.90
59282;DHT22;45054;52.062;10.010;2023-03-01T07:40:10;-3.10;99.90
59282;DHT22;45054;52.062;10.010;2023-03-01T07:42:36;-3.10;99.90
59282;DHT22;45054;52.062;10.010;2023-03-01T07:45:02;-3.00;99.90
59282;DHT22;45054;52.062;10.010;2023-03-01T07:47:27;-2.90;99.90
59282;DHT22;45054;52.062;10.010;2023-03-01T07:49:53;-2.80;99.90
59282;DHT22;45054;52.062;10.010;2023-03-01T07:52:20;-2.80;99.90
59282;DHT22;45054;52.062;10.010;2023-03-01T07:54:45;-2.70;99.90
59282;DHT22;45054;52.062;10.010;2023-03-01T07:57:11;-2.60;99.90
59282;DHT22;45054;52.062;10.010;2023-03-01T07:59:36;-2.50;99.90
59282;DHT22;45054;52.062;10.010;2023-03-01T08:02:01;-2.50;99.90
59282;DHT22;45054;52.062;10.010;2023-03-01T08:04:27;-2.40;99.90
59282;DHT22;45054;52.062;10.010;2023-03-01T08:06:52;-2.40;99.90
59282;DHT22;45054;52.062;10.010;2023-03-01T08:09:19;-2.30;99.90
59282;DHT22;45054;52.062;10.010;2023-03-01T08:11:45;-2.30;99.90
59282;DHT22;45054;52.062;10.010;2023-03-01T08:14:10;-2.20;99.90
59282;DHT22;45054;52.062;10.010;2023-03-01T08:16:36;-2.10;99.90
59282;DHT22;45054;52.062;10.010;2023-03-01T08:19:03;-2.00;99.90
59282;DHT22;45054;52.062;10.010;2023-03-01T08:21:29;-2.00;99.90
59282;DHT22;45054;52.062;10.010;2023-03-01T08:23:54;-1.90;99.90
59282;DHT22;45054;52.062;10.010;2023-03-01T08:26:21;-1.80;99.90
59282;DHT22;45054;52.062;10.010;2023-03-01T08:28:47;-1.80;99.90
59282;DHT22;45054;52.062;10.010;2023-03-01T08:31:13;-1.70;99.90
59282;DHT22;45054;52.062;10.010;2023-03-01T08:33:39;-1.70;99.90
59282;DHT22;45054;52.062;10.010;2023-03-01T08:36:04;-1.60;99.90
59282;DHT22;45054;52.062;10.010;2023-03-01T08:38:30;-1.50;99.90
59282;DHT22;45054;52.062;10.010;2023-03-01T08:40:58;-1.50;99.90
59282;DHT22;45054;52.062;10.010;2023-03-01T08:43:25;-1.40;99.90
59282;DHT22;45054;52.062;10.010;2023-03-01T08:45:50;-1.30;99.90
59282;DHT22;45054;52.062;10.010;2023-03-01T08:48:16;-1.10;99.90
59282;DHT22;45054;52.062;10.010;2023-03-01T08:50:41;-1.00;99.90
59282;DHT22;45054;52.062;10.010;2023-03-01T08:53:07;-0.90;99.90
59282;DHT22;45054;52.062;10.010;2023-03-01T08:55:32;-0.70;99.90
59282;DHT22;45054;52.062;10.010;2023-03-01T08:57:57;-0.60;99.90
59282;DHT22;45054;52.062;10.010;2023-03-01T09:00:24;-0.60;99.90
59282;DHT22;45054;52.062;10.010;2023-03-01T09:02:50;-0.50;99.90
59282;DHT22;45054;52.062;10.010;2023-03-01T09:05:15;-0.40;99.90
59282;DHT22;45054;52.062;10.010;2023-03-01T09:07:41;-0.30;99.90
59282;DHT22;45054;52.062;10.010;2023-03-01T09:10:07;-0.20;99.90
59282;DHT22;45054;52.062;10.010;2023-03-01T09:12:32;-0.20;99.90
59282;DHT22;45054;52.062;10.010;2023-03-01T09:14:58;0.00;99.90
59282;DHT22;45054;52.062;10.010;2023-03-01T09:17:24;0.00;99.90
59282;DHT22;45054;52.062;10.010;2023-03-01T09:19:50;0.10;99.90
59282;DHT22;45054;52.062;10.010;2023-03-01T09:22:15;0.10;99.90
59282;DHT22;45054;52.062;10.010;2023-03-01T09:24:41;0.20;99.90
59282;DHT22;45054;52.062;10.010;2023-03-01T09:27:06;0.30;99.90
59282;DHT22;45054;52.062;10.010;2023-03-01T09:29:32;0.40;99.90
59282;DHT22;45054;52.062;10.010;2023-03-01T09:31:57;0.30;99.90
59282;DHT22;45054;52.062;10.010;2023-03-01T09:34:24;0.40;99.90
59282;DHT22;45054;52.062;10.010;2023-03-01T09:36:49;0.50;99.90
59282;DHT22;45054;52.062;10.010;2023-03-01T09:39:15;0.60;99.90
59282;DHT22;45054;52.062;10.010;2023-03-01T09:41:43;0.70;99.90
59282;DHT22;45054;52.062;10.010;2023-03-01T09:44:10;0.80;99.90
59282;DHT22;45054;52.062;10.010;2023-03-01T09:46:38;0.90;99.90
59282;DHT22;45054;52.062;10.010;2023-03-01T09:49:07;1.10;99.90
59282;DHT22;45054;52.062;10.010;2023-03-01T09:51:36;1.20;99.90
59282;DHT22;45054;52.062;10.010;2023-03-01T09:54:02;1.30;99.90
59282;DHT22;45054;52.062;10.010;2023-03-01T09:56:29;1.40;99.90
59282;DHT22;45054;52.062;10.010;2023-03-01T09:58:56;1.40;99.90
59282;DHT22;45054;52.062;10.010;2023-03-01T10:01:26;1.50;99.90
59282;DHT22;45054;52.062;10.010;2023-03-01T10:03:58;1.50;99.90
59282;DHT22;45054;52.062;10.010;2023-03-01T10:06:25;1.60;99.90
59282;DHT22;45054;52.062;10.010;2023-03-01T10:08:53;1.80;99.90
59282;DHT22;45054;52.062;10.010;2023-03-01T10:11:21;1.90;99.90
59282;DHT22;45054;52.062;10.010;2023-03-01T10:13:49;2.00;99.90
59282;DHT22;45054;52.062;10.010;2023-03-01T10:16:16;2.20;99.90
59282;DHT22;45054;52.062;10.010;2023-03-01T10:18:45;2.40;99.90
59282;DHT22;45054;52.062;10.010;2023-03-01T10:21:13;2.50;99.90
59282;DHT22;45054;52.062;10.010;2023-03-01T10:23:39;2.40;99.90
59282;DHT22;45054;52.062;10.010;2023-03-01T10:26:09;2.40;99.90
59282;DHT22;45054;52.062;10.010;2023-03-01T10:28:40;2.40;99.90
59282;DHT22;45054;52.062;10.010;2023-03-01T10:31:09;2.60;99.90
59282;DHT22;45054;52.062;10.010;2023-03-01T10:33:37;2.60;99.90
59282;DHT22;45054;52.062;10.010;2023-03-01T10:36:03;2.70;99.90
59282;DHT22;45054;52.062;10.010;2023-03-01T10:38:29;2.80;99.90
59282;DHT22;45054;52.062;10.010;2023-03-01T10:40:56;2.90;99.90
59282;DHT22;45054;52.062;10.010;2023-03-01T10:43:23;3.00;99.90
59282;DHT22;45054;52.062;10.010;2023-03-01T10:45:50;3.00;99.90
59282;DHT22;45054;52.062;10.010;2023-03-01T10:48:16;3.00;99.90
59282;DHT22;45054;52.062;10.010;2023-03-01T10:50:43;2.90;99.90
59282;DHT22;45054;52.062;10.010;2023-03-01T10:53:22;3.00;99.90
59282;DHT22;45054;52.062;10.010;2023-03-01T10:55:56;3.10;99.90
59282;DHT22;45054;52.062;10.010;2023-03-01T10:58:22;3.10;99.90
59282;DHT22;45054;52.062;10.010;2023-03-01T11:00:50;3.20;99.90
59282;DHT22;45054;52.062;10.010;2023-03-01T11:03:16;3.30;99.90
59282;DHT22;45054;52.062;10.010;2023-03-01T11:05:53;3.40;99.90
59282;DHT22;45054;52.062;10.010;2023-03-01T11:08:29;3.40;99.90
59282;DHT22;45054;52.062;10.010;2023-03-01T11:11:00;3.30;99.90
59282;DHT22;45054;52.062;10.010;2023-03-01T11:13:28;3.20;99.90
59282;DHT22;45054;52.062;10.010;2023-03-01T11:16:02;3.20;99.90
59282;DHT22;45054;52.062;10.010;2023-03-01T11:18:28;3.40;99.90
59282;DHT22;45054;52.062;10.010;2023-03-01T11:20:54;3.50;99.90
59282;DHT22;45054;52.062;10.010;2023-03-01T11:23:20;3.60;99.90
59282;DHT22;45054;52.062;10.010;2023-03-01T11:25:47;3.80;99.90
59282;DHT22;45054;52.062;10.010;2023-03-01T11:28:15;3.80;99.90
59282;DHT22;45054;52.062;10.010;2023-03-01T11:30:43;3.90;99.90
59282;DHT22;45054;52.062;10.010;2023-03-01T11:33:17;4.20;99.90
59282;DHT22;45054;52.062;10.010;2023-03-01T11:35:44;4.20;99.90
59282;DHT22;45054;52.062;10.010;2023-03-01T11:38:15;4.30;99.90
59282;DHT22;45054;52.062;10.010;2023-03-01T11:40:43;4.40;99.90
59282;DHT22;45054;52.062;10.010;2023-03-01T11:43:12;4.50;99.90
59282;DHT22;45054;52.062;10.010;2023-03-01T11:45:43;4.50;99.90
59282;DHT22;45054;52.062;10.010;2023-03-01T11:48:17;4.50;99.90
59282;DHT22;45054;52.062;10.010;2023-03-01T11:50:49;4.50;99.90
59282;DHT22;45054;52.062;10.010;2023-03-01T11:53:23;4.50;99.90
59282;DHT22;45054;52.062;10.010;2023-03-01T11:55:59;4.60;99.90
59282;DHT22;45054;52.062;10.010;2023-03-01T11:58:41;4.70;99.90
59282;DHT22;45054;52.062;10.010;2023-03-01T12:01:18;4.80;99.90
59282;DHT22;45054;52.062;10.010;2023-03-01T12:03:57;4.60;99.90
59282;DHT22;45054;52.062;10.010;2023-03-01T12:06:34;4.50;99.90
59282;DHT22;45054;52.062;10.010;2023-03-01T12:09:11;4.40;99.90
59282;DHT22;45054;52.062;10.010;2023-03-01T12:11:42;4.50;99.90
59282;DHT22;45054;52.062;10.010;2023-03-01T12:14:13;4.60;99.90
59282;DHT22;45054;52.062;10.010;2023-03-01T12:16:54;4.50;99.90
59282;DHT22;45054;52.062;10.010;2023-03-01T12:19:28;4.60;99.90
59282;DHT22;45054;52.062;10.010;2023-03-01T12:22:04;4.80;99.90
59282;DHT22;45054;52.062;10.010;2023-03-01T12:24:44;5.00;99.90
59282;DHT22;45054;52.062;10.010;2023-03-01T12:27:16;5.10;99.90
59282;DHT22;45054;52.062;10.010;2023-03-01T12:29:48;5.30;99.90
59282;DHT22;45054;52.062;10.010;2023-03-01T12:32:23;5.20;99.90
59282;DHT22;45054;52.062;10.010;2023-03-01T12:34:58;5.30;99.90
59282;DHT22;45054;52.062;10.010;2023-03-01T12:37:29;5.40;99.90
59282;DHT22;45054;52.062;10.010;2023-03-01T12:40:01;5.60;99.90
59282;DHT22;45054;52.062;10.010;2023-03-01T12:42:29;5.60;99.90
59282;DHT22;45054;52.062;10.010;2023-03-01T12:45:16;5.60;99.90
59282;DHT22;45054;52.062;10.010;2023-03-01T12:47:57;5.50;99.90
59282;DHT22;45054;52.062;10.010;2023-03-01T12:50:28;5.60;99.90
59282;DHT22;45054;52.062;10.010;2023-03-01T12:52:57;5.80;99.90
59282;DHT22;45054;52.062;10.010;2023-03-01T12:55:27;5.80;99.90
59282;DHT22;45054;52.062;10.010;2023-03-01T12:57:56;5.90;99.90
59282;DHT22;45054;52.062;10.010;2023-03-01T13:00:25;6.00;99.90
59282;DHT22;45054;52.062;10.010;2023-03-01T13:02:52;6.10;99.90
59282;DHT22;45054;52.062;10.010;2023-03-01T13:05:24;6.00;99.90
59282;DHT22;45054;52.062;10.010;2023-03-01T13:07:54;5.90;99.90
59282;DHT22;45054;52.062;10.010;2023-03-01T13:10:24;6.00;99.90
59282;DHT22;45054;52.062;10.010;2023-03-01T13:13:00;6.00;99.90
59282;DHT22;45054;52.062;10.010;2023-03-01T13:15:27;6.00;99.90
59282;DHT22;45054;52.062;10.010;2023-03-01T13:17:53;6.20;99.90
59282;DHT22;45054;52.062;10.010;2023-03-01T13:20:19;6.30;99.90
59282;DHT22;45054;52.062;10.010;2023-03-01T13:22:45;6.40;99.90
59282;DHT22;45054;52.062;10.010;2023-03-01T13:25:14;6.60;99.90
59282;DHT22;45054;52.062;10.010;2023-03-01T13:27:39;6.70;99.90
59282;DHT22;45054;52.062;10.010;2023-03-01T13:30:12;6.70;99.90
59282;DHT22;45054;52.062;10.010;2023-03-01T13:32:51;6.60;99.90
59282;DHT22;45054;52.062;10.010;2023-03-01T13:40:59;6.50;99.90
59282;DHT22;45054;52.062;10.010;2023-03-01T13:43:31;6.90;99.90
59282;DHT22;45054;52.062;10.010;2023-03-01T13:45:57;6.90;99.90
59282;DHT22;45054;52.062;10.010;2023-03-01T13:48:24;7.00;99.90
59282;DHT22;45054;52.062;10.010;2023-03-01T13:50:50;7.00;99.90
59282;DHT22;45054;52.062;10.010;2023-03-01T13:53:17;6.90;99.90
59282;DHT22;45054;52.062;10.010;2023-03-01T13:55:44;6.90;99.90
59282;DHT22;45054;52.062;10.010;2023-03-01T13:58:21;7.10;99.90
59282;DHT22;45054;52.062;10.010;2023-03-01T14:00:47;7.10;99.90
59282;DHT22;45054;52.062;10.010;2023-03-01T14:03:19;6.90;99.90
59282;DHT22;45054;52.062;10.010;2023-03-01T14:05:57;7.00;99.90
59282;DHT22;45054;52.062;10.010;2023-03-01T14:08:24;7.20;99.90
59282;DHT22;45054;52.062;10.010;2023-03-01T14:10:54;7.20;99.90
59282;DHT22;45054;52.062;10.010;2023-03-01T14:13:28;7.20;99.90
59282;DHT22;45054;52.062;10.010;2023-03-01T14:16:03;7.40;99.90
59282;DHT22;45054;52.062;10.010;2023-03-01T14:18:32;7.50;99.90
59282;DHT22;45054;52.062;10.010;2023-03-01T14:21:01;7.60;99.90
59282;DHT22;45054;52.062;10.010;2023-03-01T14:23:32;7.60;99.90
59282;DHT22;45054;52.062;10.010;2023-03-01T14:25:57;7.70;99.90
59282;DHT22;45054;52.062;10.010;2023-03-01T14:28:23;7.60;99.90
59282;DHT22;45054;52.062;10.010;2023-03-01T14:30:51;7.70;99.90
59282;DHT22;45054;52.062;10.010;2023-03-01T14:33:18;7.80;99.90
59282;DHT22;45054;52.062;10.010;2023-03-01T14:35:51;7.80;99.90
59282;DHT22;45054;52.062;10.010;2023-03-01T14:38:20;7.70;99.90
59282;DHT22;45054;52.062;10.010;2023-03-01T14:40:45;7.80;99.90
59282;DHT22;45054;52.062;10.010;2023-03-01T14:43:12;7.90;99.90
59282;DHT22;45054;52.062;10.010;2023-03-01T14:45:42;8.00;99.90
59282;DHT22;45054;52.062;10.010;2023-03-01T14:48:13;7.90;99.90
59282;DHT22;45054;52.062;10.010;2023-03-01T14:50:40;7.90;99.90
59282;DHT22;45054;52.062;10.010;2023-03-01T14:53:06;8.00;99.90
59282;DHT22;45054;52.062;10.010;2023-03-01T14:55:37;8.10;99.90
59282;DHT22;45054;52.062;10.010;2023-03-01T14:58:04;8.10;99.90
59282;DHT22;45054;52.062;10.010;2023-03-01T15:00:31;8.10;99.90
59282;DHT22;45054;52.062;10.010;2023-03-01T15:02:58;8.10;99.90
59282;DHT22;45054;52.062;10.010;2023-03-01T15:05:27;8.00;99.90
59282;DHT22;45054;52.062;10.010;2023-03-01T15:07:54;7.80;99.90
59282;DHT22;45054;52.062;10.010;2023-03-01T15:10:20;7.80;99.90
59282;DHT22;45054;52.062;10.010;2023-03-01T15:12:46;7.80;99.90
59282;DHT22;45054;52.062;10.010;2023-03-01T15:15:22;7.80;99.90
59282;DHT22;45054;52.062;10.010;2023-03-01T15:17:50;8.00;99.90
59282;DHT22;45054;52.062;10.010;2023-03-01T15:20:18;8.20;99.90
59282;DHT22;45054;52.062;10.010;2023-03-01T15:22:45;8.50;99.90
59282;DHT22;45054;52.062;10.010;2023-03-01T15:25:14;9.00;99.90
59282;DHT22;45054;52.062;10.010;2023-03-01T15:27:39;9.10;99.90
59282;DHT22;45054;52.062;10.010;2023-03-01T15:30:13;9.50;99.90